Time;durP1;ratioP1;P1;durP2;ratioP2;P2;SDS_P1;SDS_P2;PMS_P1;PMS_P2;Temp;Humidity;BMP_temperature;BMP_pressure;BME280_temperature;BME280_humidity;BME280_pressure;Samples;Min_cycle;Max_cycle;Signal;HPM_P1;HPM_P2
2021/04/21 00:01:45;;;;;;;3.10;2.40;;;17.80;29.70;;;;;;8395537;28;19912;-55
2021/04/21 00:05:48;;;;;;;3.63;2.47;;;17.70;29.70;;;;;;8394308;28;20110;-54
2021/04/21 00:09:52;;;;;;;3.95;2.72;;;17.70;29.70;;;;;;8393787;28;20033;-52
2021/04/21 00:13:52;;;;;;;3.17;2.33;;;17.70;29.60;;;;;;8399477;28;20040;-54
2021/04/21 00:18:02;;;;;;;4.07;2.60;;;17.70;29.70;;;;;;8393702;28;20121;-54
2021/04/21 00:22:05;;;;;;;3.28;2.40;;;17.70;29.70;;;;;;8395535;28;20051;-54
2021/04/21 00:26:17;;;;;;;3.50;2.65;;;17.70;29.70;;;;;;8394968;28;20143;-54
2021/04/21 00:30:22;;;;;;;2.92;2.50;;;17.70;29.70;;;;;;8393181;28;20040;-55
2021/04/21 00:34:24;;;;;;;3.78;2.67;;;17.60;29.70;;;;;;8399188;28;20462;-55
2021/04/21 00:38:25;;;;;;;3.45;2.40;;;17.70;29.70;;;;;;8394532;28;20509;-54
2021/04/21 00:42:34;;;;;;;4.07;2.67;;;17.60;29.60;;;;;;8392488;28;20045;-56
2021/04/21 00:46:58;;;;;;;3.38;2.58;;;17.60;29.70;;;;;;8383261;28;20112;-54
2021/04/21 00:51:02;;;;;;;3.50;2.10;;;17.60;29.70;;;;;;8364306;28;20029;-55
2021/04/21 00:55:10;;;;;;;4.22;2.50;;;17.60;29.60;;;;;;8398813;28;20040;-54
2021/04/21 00:59:22;;;;;;;5.10;2.97;;;17.60;29.70;;;;;;8394172;28;20048;-53
2021/04/21 01:03:24;;;;;;;4.10;2.55;;;17.60;29.70;;;;;;8392020;28;20052;-55
2021/04/21 01:07:27;;;;;;;3.47;2.92;;;17.60;29.70;;;;;;8393848;28;20028;-54
2021/04/21 01:11:38;;;;;;;3.42;2.40;;;17.60;29.70;;;;;;8393412;28;20166;-54
2021/04/21 01:15:41;;;;;;;4.47;2.58;;;17.60;29.70;;;;;;8396281;28;20037;-54
2021/04/21 01:20:00;;;;;;;3.22;2.42;;;17.50;29.70;;;;;;8392839;28;20028;-54
2021/04/21 01:24:38;;;;;;;3.80;2.70;;;17.50;29.70;;;;;;8391259;28;20044;-54
2021/04/21 01:28:46;;;;;;;5.07;2.40;;;17.50;29.70;;;;;;8392718;28;20055;-54
2021/04/21 01:32:49;;;;;;;3.70;2.78;;;17.50;29.70;;;;;;8392797;28;20047;-54
2021/04/21 01:36:52;;;;;;;4.45;2.65;;;17.50;29.70;;;;;;8395753;28;20288;-53
2021/04/21 01:40:57;;;;;;;4.22;3.13;;;17.50;30.10;;;;;;8392426;28;20448;-54
2021/04/21 01:45:00;;;;;;;3.65;2.47;;;17.40;29.70;;;;;;8390314;28;20044;-54
2021/04/21 01:49:11;;;;;;;4.85;3.05;;;17.40;29.70;;;;;;8392029;28;20094;-54
2021/04/21 01:53:35;;;;;;;4.65;2.80;;;17.40;29.70;;;;;;8392180;28;20094;-54
2021/04/21 01:57:57;;;;;;;4.03;2.90;;;17.40;29.70;;;;;;8394821;28;20545;-55
2021/04/21 02:02:03;;;;;;;4.18;3.05;;;17.40;29.70;;;;;;8391944;28;20143;-55
2021/04/21 02:06:31;;;;;;;4.43;2.92;;;17.40;29.80;;;;;;8367085;28;20041;-54
2021/04/21 02:11:16;;;;;;;3.58;2.88;;;17.30;29.70;;;;;;8376585;28;20089;-55
2021/04/21 02:15:25;;;;;;;4.35;3.03;;;17.30;29.70;;;;;;8385491;28;20389;-54
2021/04/21 02:20:01;;;;;;;5.13;3.15;;;17.30;29.80;;;;;;8391738;28;20036;-54
2021/04/21 02:24:15;;;;;;;5.57;3.03;;;17.30;29.70;;;;;;8390557;28;20040;-55
2021/04/21 02:28:42;;;;;;;4.38;3.08;;;17.30;29.80;;;;;;8361771;28;20037;-56
2021/04/21 02:32:58;;;;;;;4.78;3.00;;;17.30;29.80;;;;;;8339168;28;20033;-55
2021/04/21 02:37:36;;;;;;;4.07;2.75;;;17.20;29.80;;;;;;8378462;28;20044;-54
2021/04/21 02:41:55;;;;;;;3.50;2.88;;;17.20;29.80;;;;;;8388227;28;20040;-55
2021/04/21 02:46:23;;;;;;;4.70;2.97;;;17.20;29.80;;;;;;8389343;28;20043;-54
2021/04/21 02:51:04;;;;;;;4.78;3.30;;;17.20;29.80;;;;;;8388990;28;20377;-54
2021/04/21 02:55:27;;;;;;;5.35;3.38;;;17.20;29.80;;;;;;8393947;28;20066;-54
2021/04/21 02:59:42;;;;;;;4.75;3.20;;;17.20;29.80;;;;;;8362023;28;20044;-54
2021/04/21 03:04:14;;;;;;;3.80;2.97;;;17.20;29.80;;;;;;8383237;28;20106;-54
2021/04/21 03:08:31;;;;;;;4.43;3.42;;;17.20;29.90;;;;;;8390837;28;20120;-54
2021/04/21 03:12:33;;;;;;;7.13;3.58;;;17.10;29.80;;;;;;8388967;28;20033;-54
2021/04/21 03:16:37;;;;;;;5.28;3.00;;;17.10;29.80;;;;;;8390394;28;20371;-54
2021/04/21 03:20:39;;;;;;;5.07;3.10;;;17.10;29.80;;;;;;8394855;28;20056;-54
2021/04/21 03:24:42;;;;;;;;;;;17.10;29.80;;;;;;8361383;28;20041;-54
2021/04/21 03:28:49;;;;;;;3.80;2.85;;;17.10;29.80;;;;;;8375864;28;20427;-53
2021/04/21 03:32:59;;;;;;;3.85;2.90;;;17.10;29.80;;;;;;8388710;28;20044;-49
2021/04/21 03:37:00;;;;;;;5.93;3.28;;;17.10;29.90;;;;;;8390520;28;20040;-54
2021/04/21 03:41:01;;;;;;;4.30;3.00;;;17.10;29.90;;;;;;8397813;28;20071;-54
2021/04/21 03:45:03;;;;;;;3.77;2.80;;;17.00;29.90;;;;;;8394383;28;20044;-54
2021/04/21 03:49:07;;;;;;;5.65;3.40;;;17.10;29.90;;;;;;8396015;28;20502;-54
2021/04/21 03:53:09;;;;;;;4.78;3.00;;;17.00;29.90;;;;;;8395898;28;20473;-54
2021/04/21 03:57:13;;;;;;;3.38;2.67;;;17.00;29.80;;;;;;8398799;28;20139;-54
2021/04/21 04:01:18;;;;;;;4.93;3.42;;;17.00;29.90;;;;;;8395885;28;20036;-54
2021/04/21 04:05:26;;;;;;;5.43;3.20;;;17.00;29.90;;;;;;8395785;28;20052;-54
2021/04/21 04:09:28;;;;;;;4.80;3.42;;;17.00;29.90;;;;;;8393859;28;20040;-54
2021/04/21 04:13:31;;;;;;;;;;;17.00;29.90;;;;;;8394562;28;20033;-54
2021/04/21 04:17:33;;;;;;;4.57;3.22;;;17.00;29.90;;;;;;8366824;28;19920;-54
2021/04/21 04:21:37;;;;;;;5.18;3.67;;;17.00;29.90;;;;;;8386256;28;20029;-54
2021/04/21 04:25:50;;;;;;;4.45;3.25;;;17.00;29.90;;;;;;8395009;28;20098;-54
2021/04/21 04:29:52;;;;;;;5.07;3.45;;;17.00;29.90;;;;;;8393202;28;20056;-51
2021/04/21 04:33:56;;;;;;;4.60;2.90;;;16.90;29.90;;;;;;8399199;28;20039;-54
2021/04/21 04:37:58;;;;;;;4.35;3.15;;;16.90;29.90;;;;;;8394941;28;20033;-54
2021/04/21 04:41:59;;;;;;;;;;;16.90;29.90;;;;;;8393291;28;20067;-54
2021/04/21 04:46:01;;;;;;;5.53;3.40;;;17.00;29.90;;;;;;8394292;28;19920;-54
2021/04/21 04:50:04;;;;;;;4.60;3.67;;;16.90;29.90;;;;;;8394271;28;20028;-54
2021/04/21 04:54:05;;;;;;;4.78;3.35;;;16.90;29.90;;;;;;8396008;28;20039;-54
2021/04/21 04:58:08;;;;;;;4.90;3.20;;;16.90;29.90;;;;;;8367680;28;20039;-54
2021/04/21 05:02:13;;;;;;;5.40;3.25;;;16.90;29.90;;;;;;8378549;28;20030;-54
2021/04/21 05:06:16;;;;;;;5.90;3.88;;;16.90;29.90;;;;;;8388350;28;20040;-54
2021/04/21 05:10:22;;;;;;;4.53;3.17;;;16.90;29.90;;;;;;8376913;28;20033;-54
2021/04/21 05:14:24;;;;;;;4.22;3.30;;;16.90;29.90;;;;;;8393191;28;20036;-54
2021/04/21 05:18:41;;;;;;;;;;;16.90;29.90;;;;;;8391615;28;20044;-54
2021/04/21 05:23:02;;;;;;;5.85;3.33;;;16.90;29.90;;;;;;8377765;28;20289;-54
2021/04/21 05:27:35;;;;;;;4.57;3.43;;;16.90;29.90;;;;;;8360254;28;20045;-54
2021/04/21 05:32:24;;;;;;;4.07;3.33;;;16.80;29.90;;;;;;8392916;28;20739;-54
2021/04/21 05:36:40;;;;;;;5.00;3.30;;;16.80;29.90;;;;;;8395274;28;20363;-53
2021/04/21 05:41:21;;;;;;;6.18;4.05;;;16.80;29.90;;;;;;8363664;28;20090;-54
2021/04/21 05:45:56;;;;;;;4.68;3.40;;;16.80;29.90;;;;;;8387305;28;20048;-54
2021/04/21 05:50:28;;;;;;;4.65;3.42;;;16.80;29.90;;;;;;8392245;28;20028;-54
2021/04/21 05:55:05;;;;;;;7.93;3.70;;;16.80;29.90;;;;;;8390523;28;20128;-54
2021/04/21 05:59:28;;;;;;;4.85;3.28;;;16.90;29.90;;;;;;8377466;28;20040;-54
2021/04/21 06:03:31;;;;;;;5.53;3.15;;;16.90;29.90;;;;;;8365492;28;20093;-54
2021/04/21 06:07:32;;;;;;;5.63;3.67;;;16.90;29.80;;;;;;8396038;28;20123;-55
2021/04/21 06:11:33;;;;;;;5.73;3.60;;;17.00;30.20;;;;;;8358982;28;20417;-54
2021/04/21 06:15:39;;;;;;;5.60;3.30;;;17.00;29.80;;;;;;8379338;28;20036;-54
2021/04/21 06:19:43;;;;;;;3.65;2.95;;;17.00;29.80;;;;;;8391561;28;20358;-54
2021/04/21 06:23:44;;;;;;;5.05;3.55;;;17.00;29.80;;;;;;8387821;28;20052;-54
2021/04/21 06:27:44;;;;;;;5.70;4.03;;;17.00;29.70;;;;;;8360844;28;20512;-54
2021/04/21 06:31:51;;;;;;;5.13;3.77;;;17.00;29.70;;;;;;8384289;28;20040;-54
2021/04/21 06:35:56;;;;;;;5.80;3.38;;;17.10;29.70;;;;;;8389434;28;20481;-54
2021/04/21 06:40:05;;;;;;;6.20;3.85;;;17.10;29.70;;;;;;8390694;28;20405;-54
2021/04/21 06:44:06;;;;;;;5.75;3.80;;;17.20;29.60;;;;;;8391638;28;20044;-54
2021/04/21 06:48:09;;;;;;;5.10;3.78;;;17.20;29.50;;;;;;8392285;28;20066;-54
2021/04/21 06:52:13;;;;;;;5.60;3.85;;;17.40;29.40;;;;;;8355938;28;20036;-55
2021/04/21 06:56:14;;;;;;;4.72;3.78;;;17.50;29.10;;;;;;8338644;28;20143;-55
2021/04/21 07:00:17;;;;;;;5.32;3.58;;;17.70;29.00;;;;;;8359415;28;20381;-54
2021/04/21 07:04:19;;;;;;;5.80;3.60;;;17.70;28.90;;;;;;8394932;28;20133;-55
2021/04/21 07:08:28;;;;;;;4.28;3.58;;;17.80;28.90;;;;;;8390063;28;20032;-54
2021/04/21 07:12:29;;;;;;;4.78;3.40;;;17.80;28.90;;;;;;8388708;28;20062;-54
2021/04/21 07:16:31;;;;;;;4.78;3.58;;;17.80;28.90;;;;;;8385230;28;20040;-56
2021/04/21 07:20:33;;;;;;;5.75;3.60;;;17.80;29.00;;;;;;8365435;28;20029;-54
2021/04/21 07:24:35;;;;;;;4.47;3.88;;;17.70;29.00;;;;;;8399452;28;20515;-54
2021/04/21 07:28:38;;;;;;;;;;;17.70;29.10;;;;;;8382215;28;20037;-54
2021/04/21 07:32:46;;;;;;;10.80;5.35;;;17.70;29.20;;;;;;8386634;28;20284;-54
2021/04/21 07:36:48;;;;;;;6.28;3.72;;;17.60;29.20;;;;;;8393389;28;20043;-54
2021/04/21 07:40:52;;;;;;;5.93;4.00;;;17.60;29.30;;;;;;8400839;28;20106;-54
2021/04/21 07:44:54;;;;;;;5.25;3.97;;;17.60;29.30;;;;;;8364982;27;20494;-54
2021/04/21 07:48:55;;;;;;;5.60;3.92;;;17.60;29.40;;;;;;8381999;28;20051;-54
2021/04/21 07:53:01;;;;;;;5.60;4.30;;;17.60;29.50;;;;;;8395969;28;20041;-54
2021/04/21 07:57:16;;;;;;;6.00;3.95;;;17.50;29.60;;;;;;8393828;28;20029;-54
2021/04/21 08:01:34;;;;;;;4.53;3.70;;;17.50;29.60;;;;;;8400073;28;20048;-54
2021/04/21 08:05:49;;;;;;;6.85;4.28;;;17.50;29.70;;;;;;8343151;28;20046;-56
2021/04/21 08:09:50;;;;;;;4.47;3.65;;;17.40;29.70;;;;;;8361386;28;20036;-56
2021/04/21 08:13:51;;;;;;;6.38;4.03;;;17.40;29.80;;;;;;8373572;28;20036;-53
2021/04/21 08:17:57;;;;;;;4.88;3.67;;;17.40;29.80;;;;;;8393517;28;20131;-53
2021/04/21 08:21:58;;;;;;;5.15;3.80;;;17.40;29.90;;;;;;8399857;28;20504;-53
2021/04/21 08:25:59;;;;;;;6.77;3.83;;;17.40;29.90;;;;;;8393779;28;20135;-54
2021/04/21 08:29:59;;;;;;;4.77;3.70;;;17.40;29.90;;;;;;8393069;28;20082;-54
2021/04/21 08:34:00;;;;;;;4.60;3.53;;;17.50;30.00;;;;;;8388879;28;20025;-54
2021/04/21 08:38:01;;;;;;;6.43;4.10;;;17.40;30.00;;;;;;8366049;28;20514;-54
2021/04/21 08:42:02;;;;;;;5.60;3.87;;;17.50;30.00;;;;;;8389677;28;20044;-54
2021/04/21 08:46:03;;;;;;;4.95;3.80;;;17.50;30.00;;;;;;8393855;28;20048;-53
2021/04/21 08:50:05;;;;;;;5.15;3.75;;;17.50;30.00;;;;;;8394443;28;20436;-54
2021/04/21 08:54:09;;;;;;;;;;;17.50;30.00;;;;;;8395211;28;20029;-54
2021/04/21 08:58:10;;;;;;;4.88;3.63;;;17.50;30.00;;;;;;8397277;28;20015;-53
2021/04/21 09:02:12;;;;;;;5.03;4.00;;;17.50;30.10;;;;;;8394295;28;20037;-53
2021/04/21 09:06:15;;;;;;;;;;;17.60;30.10;;;;;;8392482;28;20112;-54
2021/04/21 09:10:18;;;;;;;4.60;3.45;;;17.60;30.10;;;;;;8393636;28;19908;-55
2021/04/21 09:14:19;;;;;;;5.05;3.60;;;17.60;30.10;;;;;;8397957;28;20040;-54
2021/04/21 09:18:31;;;;;;;5.40;3.87;;;17.60;30.10;;;;;;8391763;28;20040;-54
2021/04/21 09:22:32;;;;;;;5.85;3.90;;;17.60;30.10;;;;;;8393126;28;20033;-54
2021/04/21 09:26:34;;;;;;;5.10;3.57;;;17.60;30.10;;;;;;8361128;28;20049;-59
2021/04/21 09:30:37;;;;;;;4.72;3.70;;;17.70;30.10;;;;;;8325169;28;20465;-54
2021/04/21 09:34:53;;;;;;;6.55;4.20;;;17.70;30.10;;;;;;8378816;28;20040;-54
2021/04/21 09:38:53;;;;;;;6.32;3.92;;;17.70;30.10;;;;;;8390306;28;20040;-54
2021/04/21 09:42:54;;;;;;;6.37;4.30;;;17.70;30.10;;;;;;8391076;28;20036;-54
2021/04/21 09:46:56;;;;;;;4.88;3.47;;;17.70;30.10;;;;;;8392559;28;20090;-54
2021/04/21 09:51:07;;;;;;;4.88;3.58;;;17.80;30.20;;;;;;8395039;28;20485;-54
2021/04/21 09:55:14;;;;;;;4.88;3.95;;;17.80;30.10;;;;;;8392053;28;20111;-56
2021/04/21 09:59:25;;;;;;;5.38;3.58;;;17.80;30.10;;;;;;8392231;28;20508;-53
2021/04/21 10:03:26;;;;;;;4.53;3.65;;;17.80;30.10;;;;;;8390157;28;20040;-53
2021/04/21 10:07:27;;;;;;;4.50;3.93;;;17.90;30.10;;;;;;8392076;28;20123;-54
2021/04/21 10:11:27;;;;;;;5.60;3.90;;;17.90;30.10;;;;;;8396165;28;20123;-53
2021/04/21 10:15:30;;;;;;;5.53;3.93;;;17.90;30.10;;;;;;8389762;28;20454;-54
2021/04/21 10:19:32;;;;;;;5.03;3.25;;;17.90;30.10;;;;;;8390434;28;20032;-54
2021/04/21 10:23:33;;;;;;;4.78;3.72;;;18.00;30.10;;;;;;8391196;28;20127;-54
2021/04/21 10:27:34;;;;;;;4.30;3.57;;;18.00;30.00;;;;;;8394144;28;20037;-54
2021/04/21 10:31:36;;;;;;;4.60;3.33;;;18.10;30.10;;;;;;8391342;28;20115;-55
2021/04/21 10:35:36;;;;;;;6.18;3.75;;;18.00;30.00;;;;;;8390970;28;20524;-56
2021/04/21 10:39:38;;;;;;;6.97;3.40;;;18.10;30.00;;;;;;8388122;28;20046;-55
2021/04/21 10:43:40;;;;;;;4.55;3.50;;;18.10;30.00;;;;;;8390836;28;20029;-55
2021/04/21 10:47:46;;;;;;;4.50;3.28;;;18.10;30.00;;;;;;8395416;28;20035;-55
2021/04/21 10:51:47;;;;;;;5.50;3.45;;;18.20;30.00;;;;;;8388934;28;20036;-56
2021/04/21 10:55:48;;;;;;;4.30;3.20;;;18.20;30.00;;;;;;8389774;28;20040;-55
2021/04/21 11:00:17;;;;;;;5.38;3.25;;;18.20;29.90;;;;;;8390512;28;20028;-55
2021/04/21 11:04:56;;;;;;;4.80;3.40;;;18.20;29.90;;;;;;8387903;28;20048;-55
2021/04/21 11:08:57;;;;;;;4.65;3.17;;;18.20;29.90;;;;;;8393499;28;20095;-55
2021/04/21 11:12:59;;;;;;;5.83;3.60;;;18.30;29.90;;;;;;8390722;28;20035;-56
2021/04/21 11:17:07;;;;;;;4.47;3.15;;;18.30;29.80;;;;;;8390656;28;20090;-57
2021/04/21 11:21:09;;;;;;;4.70;3.13;;;18.30;29.70;;;;;;8389049;28;20037;-56
2021/04/21 11:25:23;;;;;;;4.10;3.40;;;18.30;29.60;;;;;;8390370;28;20350;-56
2021/04/21 11:29:27;;;;;;;4.13;3.00;;;18.30;29.70;;;;;;8395119;28;20390;-55
2021/04/21 11:33:50;;;;;;;4.68;3.63;;;18.30;29.70;;;;;;8389062;28;20044;-56
2021/04/21 11:37:51;;;;;;;4.13;3.35;;;18.40;29.60;;;;;;8353272;28;20554;-56
2021/04/21 11:41:51;;;;;;;4.20;3.33;;;18.40;29.50;;;;;;8333530;28;20104;-54
2021/04/21 11:45:52;;;;;;;3.40;3.00;;;18.40;29.40;;;;;;8365385;28;20048;-57
2021/04/21 11:49:59;;;;;;;4.57;3.33;;;18.40;30.00;;;;;;8394081;28;20032;-56
2021/04/21 11:53:59;;;;;;;3.80;3.25;;;18.40;29.20;;;;;;8388320;28;20126;-55
2021/04/21 11:58:11;;;;;;;4.77;3.37;;;18.50;29.50;;;;;;8389939;28;20033;-56
2021/04/21 12:02:15;;;;;;;;;;;18.50;29.60;;;;;;8393911;28;20028;-56
2021/04/21 12:06:18;;;;;;;4.18;3.03;;;18.50;29.60;;;;;;8398528;28;19923;-55
2021/04/21 12:10:20;;;;;;;4.32;3.03;;;18.50;29.60;;;;;;8395351;28;20487;-55
2021/04/21 12:14:21;;;;;;;3.35;2.92;;;18.50;29.50;;;;;;8395453;28;20529;-56
2021/04/21 12:18:25;;;;;;;3.73;2.83;;;18.50;30.00;;;;;;8393443;28;20044;-54
2021/04/21 12:22:41;;;;;;;5.07;3.00;;;18.60;29.60;;;;;;8395219;28;20444;-54
2021/04/21 12:26:45;;;;;;;4.07;3.30;;;18.60;29.60;;;;;;8399238;28;20045;-54
2021/04/21 12:30:54;;;;;;;5.05;3.33;;;18.60;29.50;;;;;;8392904;28;20028;-56
2021/04/21 12:34:55;;;;;;;4.15;3.10;;;18.60;29.50;;;;;;8394981;28;20119;-54
2021/04/21 12:39:13;;;;;;;4.03;3.10;;;18.60;29.60;;;;;;8392770;28;20040;-56
2021/04/21 12:43:16;;;;;;;7.28;3.50;;;18.70;29.60;;;;;;8394763;28;20031;-56
2021/04/21 12:47:17;;;;;;;4.00;2.95;;;18.70;29.40;;;;;;8399022;28;20094;-56
2021/04/21 12:51:21;;;;;;;3.72;2.90;;;18.70;29.40;;;;;;8392435;28;20040;-56
2021/04/21 12:55:28;;;;;;;4.00;3.20;;;18.70;29.50;;;;;;8393576;28;20123;-56
2021/04/21 12:59:38;;;;;;;4.00;3.10;;;18.80;29.50;;;;;;8393926;28;20029;-56
2021/04/21 13:03:39;;;;;;;5.00;3.20;;;18.80;29.50;;;;;;8396572;28;20404;-55
2021/04/21 13:07:40;;;;;;;3.78;2.80;;;18.80;29.50;;;;;;8393671;28;20040;-57
2021/04/21 13:11:42;;;;;;;3.40;2.90;;;18.70;29.50;;;;;;8393098;28;20078;-56
2021/04/21 13:15:42;;;;;;;3.58;2.75;;;18.80;29.40;;;;;;8391300;28;20313;-57
2021/04/21 13:19:52;;;;;;;4.73;3.27;;;18.80;29.30;;;;;;8393384;28;20051;-56
2021/04/21 13:23:54;;;;;;;5.63;2.70;;;18.70;29.40;;;;;;8396080;28;20040;-56
2021/04/21 13:27:54;;;;;;;6.30;3.38;;;18.80;29.50;;;;;;8392827;28;20044;-57
2021/04/21 13:32:09;;;;;;;4.37;2.70;;;18.80;29.40;;;;;;8392911;28;20124;-56
2021/04/21 13:36:11;;;;;;;4.35;2.75;;;18.80;29.50;;;;;;8391342;28;20123;-56
2021/04/21 13:40:20;;;;;;;3.63;2.83;;;18.80;29.50;;;;;;8393650;28;20053;-57
2021/04/21 13:44:21;;;;;;;3.97;2.88;;;18.80;29.20;;;;;;8362455;28;20048;-57
2021/04/21 13:48:22;;;;;;;3.80;3.10;;;18.80;29.20;;;;;;8382604;28;20130;-57
2021/04/21 13:52:22;;;;;;;4.00;3.07;;;18.80;29.40;;;;;;8392480;28;20028;-56
2021/04/21 13:56:23;;;;;;;3.17;2.87;;;18.80;29.40;;;;;;8392316;28;20024;-57
2021/04/21 14:00:24;;;;;;;3.70;2.67;;;18.90;29.40;;;;;;8394984;28;20133;-57
2021/04/21 14:04:25;;;;;;;4.45;2.92;;;18.90;29.00;;;;;;8391837;28;20094;-55
2021/04/21 14:08:26;;;;;;;3.30;3.00;;;18.90;29.30;;;;;;8392039;28;20060;-56
2021/04/21 14:12:27;;;;;;;4.10;3.08;;;18.90;29.30;;;;;;8389525;28;20040;-57
2021/04/21 14:16:27;;;;;;;3.87;2.50;;;19.00;28.90;;;;;;8396289;28;20070;-55
2021/04/21 14:20:28;;;;;;;3.07;2.60;;;19.00;29.10;;;;;;8391710;28;20090;-57
2021/04/21 14:24:28;;;;;;;5.97;3.17;;;19.00;28.60;;;;;;8389027;28;20044;-57
2021/04/21 14:28:29;;;;;;;3.57;2.90;;;19.00;29.00;;;;;;8391496;28;20267;-57
2021/04/21 14:32:29;;;;;;;3.67;3.03;;;19.00;28.90;;;;;;8391560;28;20044;-57
2021/04/21 14:36:32;;;;;;;6.03;3.60;;;19.10;28.80;;;;;;8394661;28;20396;-56
2021/04/21 14:40:32;;;;;;;5.28;3.05;;;19.00;28.80;;;;;;8390881;28;20032;-56
2021/04/21 14:44:33;;;;;;;4.20;3.10;;;19.10;28.50;;;;;;8391082;28;20086;-57
2021/04/21 14:48:33;;;;;;;4.53;3.37;;;19.10;28.50;;;;;;8389581;28;20378;-56
2021/04/21 14:52:34;;;;;;;4.67;2.93;;;19.10;28.60;;;;;;8395476;28;20032;-56
2021/04/21 14:56:37;;;;;;;3.05;2.60;;;19.10;28.90;;;;;;8390823;28;20037;-56
2021/04/21 15:00:37;;;;;;;3.13;2.83;;;19.10;28.70;;;;;;8389151;28;20090;-57
2021/04/21 15:04:38;;;;;;;4.03;2.63;;;19.10;28.60;;;;;;8390517;28;20045;-56
2021/04/21 15:08:39;;;;;;;3.60;2.90;;;19.10;28.80;;;;;;8390700;28;20079;-56
2021/04/21 15:12:41;;;;;;;3.65;2.85;;;19.10;28.80;;;;;;8387888;28;20082;-53
2021/04/21 15:16:41;;;;;;;2.85;2.40;;;19.10;29.10;;;;;;8372183;28;20067;-56
2021/04/21 15:20:42;;;;;;;3.57;3.27;;;19.00;29.00;;;;;;8338804;28;20172;-56
2021/04/21 15:24:44;;;;;;;5.27;2.57;;;19.10;28.90;;;;;;8325082;28;20040;-53
2021/04/21 15:28:46;;;;;;;3.42;2.83;;;19.00;29.00;;;;;;8350013;28;20120;-53
2021/04/21 15:32:47;;;;;;;3.50;2.55;;;19.00;29.00;;;;;;8331688;28;20034;-53
2021/04/21 15:36:48;;;;;;;3.05;2.72;;;19.00;29.00;;;;;;8344092;28;20045;-54
2021/04/21 15:40:50;;;;;;;3.33;2.77;;;19.00;29.10;;;;;;8363658;28;20404;-54
2021/04/21 15:44:54;;;;;;;3.05;2.58;;;19.00;29.20;;;;;;8348887;28;20048;-54
2021/04/21 15:48:55;;;;;;;4.00;2.55;;;19.00;29.10;;;;;;8354131;28;20037;-54
2021/04/21 15:52:57;;;;;;;4.10;3.00;;;19.00;29.20;;;;;;8386052;28;20489;-54
2021/04/21 15:57:00;;;;;;;3.35;2.78;;;19.00;29.20;;;;;;8393982;28;20047;-58
2021/04/21 16:01:06;;;;;;;3.13;2.45;;;19.00;29.20;;;;;;8395593;28;20055;-54
2021/04/21 16:05:18;;;;;;;3.75;2.65;;;19.00;29.20;;;;;;8388846;28;20045;-54
2021/04/21 16:09:18;;;;;;;;;;;19.00;29.20;;;;;;8390165;28;20037;-54
2021/04/21 16:13:21;;;;;;;3.33;2.53;;;19.00;29.10;;;;;;8395692;28;19958;-54
2021/04/21 16:17:21;;;;;;;3.22;2.35;;;19.00;29.20;;;;;;8395494;28;20469;-54
2021/04/21 16:21:22;;;;;;;2.83;2.33;;;19.10;29.20;;;;;;8379920;28;20036;-56
2021/04/21 16:25:23;;;;;;;3.10;2.77;;;19.00;29.10;;;;;;8351198;27;20084;-54
2021/04/21 16:29:23;;;;;;;5.38;2.78;;;19.10;29.20;;;;;;8352511;28;20037;-54
2021/04/21 16:33:24;;;;;;;4.10;2.87;;;19.00;29.20;;;;;;8389532;28;20051;-54
2021/04/21 16:37:24;;;;;;;4.57;3.00;;;19.10;29.20;;;;;;8394631;28;20037;-53
2021/04/21 16:41:25;;;;;;;3.73;2.83;;;19.10;29.20;;;;;;8398408;28;20033;-54
2021/04/21 16:45:26;;;;;;;5.00;3.43;;;19.10;29.30;;;;;;8393089;28;20040;-53
2021/04/21 16:49:26;;;;;;;5.20;3.83;;;19.10;29.20;;;;;;8393011;28;20081;-53
2021/04/21 16:53:27;;;;;;;4.60;3.23;;;19.10;29.20;;;;;;8394153;28;20501;-54
2021/04/21 16:57:28;;;;;;;4.10;3.10;;;19.10;29.30;;;;;;8374958;28;20048;-54
2021/04/21 17:01:29;;;;;;;5.27;3.30;;;19.10;29.30;;;;;;8391790;28;20041;-53
2021/04/21 17:05:29;;;;;;;5.47;3.70;;;19.10;29.30;;;;;;8393918;28;20302;-56
2021/04/21 17:09:30;;;;;;;4.90;3.43;;;19.10;29.30;;;;;;8391917;28;20036;-56
2021/04/21 17:13:30;;;;;;;4.97;3.33;;;19.10;29.30;;;;;;8393071;28;20025;-54
2021/04/21 17:17:31;;;;;;;6.10;4.03;;;19.00;29.20;;;;;;8398145;28;20036;-56
2021/04/21 17:21:33;;;;;;;5.37;3.30;;;19.10;29.20;;;;;;8391572;28;20040;-56
2021/04/21 17:25:35;;;;;;;5.10;3.30;;;19.10;29.30;;;;;;8393280;28;20041;-57
2021/04/21 17:29:36;;;;;;;4.85;2.97;;;19.10;29.70;;;;;;8393179;28;20083;-56
2021/04/21 17:33:37;;;;;;;4.17;2.87;;;19.10;29.30;;;;;;8395644;28;20045;-56
2021/04/21 17:37:38;;;;;;;4.80;3.23;;;19.10;29.30;;;;;;8392859;28;20040;-56
2021/04/21 17:41:39;;;;;;;5.13;2.97;;;19.10;29.30;;;;;;8393128;28;20131;-57
2021/04/21 17:45:40;;;;;;;4.97;3.13;;;19.10;29.30;;;;;;8390043;28;20047;-56
2021/04/21 17:49:41;;;;;;;4.60;3.10;;;19.10;29.30;;;;;;8396780;28;20031;-55
2021/04/21 17:53:42;;;;;;;4.67;2.77;;;19.00;29.20;;;;;;8392263;28;20485;-57
2021/04/21 17:57:42;;;;;;;3.85;2.80;;;19.00;29.30;;;;;;8390537;28;20124;-57
2021/04/21 18:01:43;;;;;;;3.83;2.63;;;19.00;29.30;;;;;;8391918;28;20039;-57
2021/04/21 18:05:45;;;;;;;4.07;2.90;;;19.00;29.20;;;;;;8391563;28;20068;-57
2021/04/21 18:09:45;;;;;;;3.65;2.60;;;19.00;29.20;;;;;;8394555;28;20134;-57
2021/04/21 18:13:46;;;;;;;3.37;2.50;;;19.00;29.30;;;;;;8391888;28;20071;-57
2021/04/21 18:17:52;;;;;;;4.73;2.93;;;19.00;29.30;;;;;;8392020;28;20554;-56
2021/04/21 18:21:53;;;;;;;3.60;2.67;;;19.00;29.30;;;;;;8390249;28;20378;-56
2021/04/21 18:25:53;;;;;;;2.70;2.40;;;19.00;29.30;;;;;;8396008;28;20044;-56
2021/04/21 18:29:54;;;;;;;3.23;2.20;;;19.00;29.30;;;;;;8389104;28;20443;-56
2021/04/21 18:33:54;;;;;;;3.37;2.20;;;19.00;29.30;;;;;;8366524;28;20074;-56
2021/04/21 18:37:56;;;;;;;3.30;2.33;;;19.00;29.30;;;;;;8391289;28;20036;-56
2021/04/21 18:41:57;;;;;;;3.45;2.58;;;19.00;29.30;;;;;;8389703;28;20120;-56
2021/04/21 18:45:57;;;;;;;2.93;2.40;;;19.00;29.40;;;;;;8395508;28;20441;-56
2021/04/21 18:49:58;;;;;;;2.50;2.03;;;19.00;29.30;;;;;;8390913;28;20045;-54
2021/04/21 18:53:58;;;;;;;2.37;2.03;;;19.00;29.30;;;;;;8389380;28;20056;-57
2021/04/21 18:57:59;;;;;;;4.13;2.43;;;18.90;29.30;;;;;;8385601;28;20032;-56
2021/04/21 19:02:01;;;;;;;3.60;2.57;;;18.90;29.40;;;;;;8362196;28;20052;-56
2021/04/21 19:06:01;;;;;;;3.17;2.08;;;18.90;29.40;;;;;;8384297;28;20135;-56
2021/04/21 19:10:03;;;;;;;3.60;2.60;;;18.90;29.40;;;;;;8391146;28;20037;-56
2021/04/21 19:14:04;;;;;;;5.05;2.75;;;18.90;29.40;;;;;;8397142;28;20512;-55
2021/04/21 19:18:06;;;;;;;4.05;2.92;;;18.90;29.50;;;;;;8400010;28;20064;-56
2021/04/21 19:22:06;;;;;;;3.40;2.47;;;18.90;29.50;;;;;;8365489;28;20072;-56
2021/04/21 19:26:11;;;;;;;3.77;2.40;;;18.90;29.50;;;;;;8386225;28;20041;-55
2021/04/21 19:30:16;;;;;;;2.70;2.20;;;18.90;29.50;;;;;;8394737;28;20422;-56
2021/04/21 19:34:18;;;;;;;3.25;2.38;;;18.90;29.60;;;;;;8396845;28;20568;-54
2021/04/21 19:38:19;;;;;;;;;;;18.90;29.60;;;;;;8399669;28;20497;-55
2021/04/21 19:42:19;;;;;;;3.73;2.70;;;18.80;29.60;;;;;;8395156;28;19912;-55
2021/04/21 19:46:20;;;;;;;3.50;2.37;;;18.90;29.60;;;;;;8379604;28;20053;-54
2021/04/21 19:50:20;;;;;;;3.03;2.43;;;18.90;29.60;;;;;;8371290;28;20036;-54
2021/04/21 19:54:21;;;;;;;3.50;2.43;;;18.90;29.60;;;;;;8398749;28;20397;-56
2021/04/21 19:58:22;;;;;;;3.73;2.50;;;18.90;29.60;;;;;;8395783;28;20043;-55
2021/04/21 20:02:23;;;;;;;2.67;2.17;;;18.80;29.60;;;;;;8396154;28;20393;-55
2021/04/21 20:06:25;;;;;;;2.47;2.27;;;18.90;29.60;;;;;;8393896;28;20067;-54
2021/04/21 20:10:26;;;;;;;;;;;18.80;29.60;;;;;;8395247;28;20068;-55
2021/04/21 20:14:26;;;;;;;3.20;2.63;;;18.80;29.60;;;;;;8367033;28;20296;-55
2021/04/21 20:18:27;;;;;;;3.30;2.53;;;18.80;29.60;;;;;;8386365;28;20041;-56
2021/04/21 20:22:27;;;;;;;3.03;2.60;;;18.80;29.70;;;;;;8395725;28;20497;-55
2021/04/21 20:26:28;;;;;;;3.10;2.50;;;18.80;29.70;;;;;;8395295;28;20115;-54
2021/04/21 20:30:31;;;;;;;2.80;2.43;;;18.80;29.70;;;;;;8398008;28;20033;-56
2021/04/21 20:34:32;;;;;;;3.72;2.70;;;18.80;29.70;;;;;;8394825;28;20093;-55
2021/04/21 20:38:34;;;;;;;3.42;2.40;;;18.80;29.70;;;;;;8394724;28;20028;-55
2021/04/21 20:42:34;;;;;;;;;;;18.80;29.70;;;;;;8393581;28;20127;-56
2021/04/21 20:46:35;;;;;;;5.43;2.90;;;18.80;29.70;;;;;;8398688;28;20407;-54
2021/04/21 20:50:36;;;;;;;3.97;2.40;;;18.80;29.70;;;;;;8395713;28;20432;-54
2021/04/21 20:54:39;;;;;;;2.60;2.20;;;18.70;29.70;;;;;;8392724;28;20044;-55
2021/04/21 20:58:39;;;;;;;3.17;2.50;;;18.80;29.80;;;;;;8394358;28;20429;-55
2021/04/21 21:02:40;;;;;;;3.27;2.50;;;18.70;29.70;;;;;;8394381;28;20047;-56
2021/04/21 21:06:40;;;;;;;6.53;2.30;;;18.70;29.80;;;;;;8396559;28;20041;-56
2021/04/21 21:10:41;;;;;;;3.23;2.53;;;18.70;29.80;;;;;;8393573;28;20033;-55
2021/04/21 21:14:41;;;;;;;2.93;2.50;;;18.70;29.80;;;;;;8394145;28;20037;-56
2021/04/21 21:18:42;;;;;;;3.77;2.50;;;18.70;29.80;;;;;;8385354;28;20048;-56
2021/04/21 21:22:43;;;;;;;3.30;2.47;;;18.70;29.80;;;;;;8365133;28;20175;-54